Time;durP1;ratioP1;P1;durP2;ratioP2;P2;SDS_P1;SDS_P2;PMS_P1;PMS_P2;Temp;Humidity;BMP_temperature;BMP_pressure;BME280_temperature;BME280_humidity;BME280_pressure;Samples;Min_cycle;Max_cycle;Signal;HPM_P1;HPM_P2
2021/01/12 00:01:54;;;;;;;13.93;5.95;;;;;;;5.91;89.43;98930.97;4882717;29;20096;-79
2021/01/12 00:04:20;;;;;;;13.55;6.10;;;;;;;5.95;88.89;98903.94;4883171;29;20489;-79
2021/01/12 00:06:49;;;;;;;16.35;6.95;;;;;;;5.95;89.35;98896.75;4882547;29;20123;-79
2021/01/12 00:09:14;;;;;;;17.60;7.05;;;;;;;6.00;88.95;98890.75;4883253;29;20031;-80
2021/01/12 00:11:40;;;;;;;14.85;7.03;;;;;;;5.98;88.84;98876.88;4868888;29;20431;-76
2021/01/12 00:14:30;;;;;;;17.08;6.25;;;;;;;5.96;88.20;98853.25;4861355;29;20093;-75
2021/01/12 00:16:50;;;;;;;10.45;4.82;;;;;;;5.89;88.46;98824.22;4860973;29;20072;-76
2021/01/12 00:19:16;;;;;;;13.60;4.70;;;;;;;5.83;88.52;98832.41;4853625;29;20060;-77
2021/01/12 00:21:41;;;;;;;13.90;5.55;;;;;;;5.79;88.71;98842.72;4863858;29;20047;-79
2021/01/12 00:24:07;;;;;;;10.02;3.97;;;;;;;5.76;89.23;98816.66;4858771;29;20476;-78
2021/01/12 00:26:32;;;;;;;14.85;4.97;;;;;;;5.73;89.70;98820.63;4845770;29;20067;-78
2021/01/12 00:28:58;;;;;;;9.02;3.58;;;;;;;5.71;90.08;98806.81;4858787;29;20387;-78
2021/01/12 00:31:23;;;;;;;10.13;2.47;;;;;;;5.68;89.77;98782.66;4866284;29;20056;-81
2021/01/12 00:34:45;;;;;;;9.75;2.92;;;;;;;5.63;89.96;98790.53;4881834;29;20028;-81
2021/01/12 00:37:11;;;;;;;4.47;2.25;;;;;;;5.58;90.08;98801.91;5136488;23;20064;-78
2021/01/12 00:39:36;;;;;;;7.40;2.70;;;;;;;5.54;90.08;98811.41;4882728;29;20103;-80
2021/01/12 00:42:02;;;;;;;7.45;2.42;;;;;;;5.53;89.89;98818.56;4887571;29;20054;-78
2021/01/12 00:44:27;;;;;;;7.30;3.03;;;;;;;5.51;90.66;98814.56;4884044;29;20181;-78
2021/01/12 00:46:54;;;;;;;9.68;3.65;;;;;;;5.50;90.44;98829.66;4882502;29;20031;-77
2021/01/12 00:49:24;;;;;;;4.60;2.58;;;;;;;5.50;90.84;98836.81;4882953;29;20367;-80
2021/01/12 00:52:17;;;;;;;7.97;2.22;;;;;;;5.54;90.44;98869.75;4891879;29;20565;-81
2021/01/12 00:54:42;;;;;;;3.10;1.98;;;;;;;5.56;90.41;98878.28;4894848;29;20055;-80
2021/01/12 00:57:08;;;;;;;3.13;2.30;;;;;;;5.57;90.39;98870.06;4882898;29;20059;-78
2021/01/12 00:59:34;;;;;;;6.97;2.13;;;;;;;5.63;90.84;98892.16;4899442;29;20072;-79
2021/01/12 01:02:04;;;;;;;3.10;1.95;;;;;;;5.69;91.16;98903.63;4901784;29;20548;-80
2021/01/12 01:04:30;;;;;;;6.85;2.45;;;;;;;5.70;90.57;98892.78;4902295;29;20020;-79
2021/01/12 01:06:56;;;;;;;4.43;2.10;;;;;;;5.74;90.14;98891.22;4902081;29;20035;-80
2021/01/12 01:09:22;;;;;;;5.40;2.20;;;;;;;5.80;90.22;98894.75;4901195;29;20032;-80
2021/01/12 01:11:48;;;;;;;5.57;2.08;;;;;;;5.83;90.00;98891.59;4900840;29;20032;-81
2021/01/12 01:14:15;;;;;;;3.42;1.98;;;;;;;5.89;90.23;98892.44;4902091;29;20103;-79
2021/01/12 01:16:42;;;;;;;3.47;2.15;;;;;;;5.91;90.01;98893.81;4883892;29;20550;-80
2021/01/12 01:19:07;;;;;;;4.63;1.83;;;;;;;5.97;89.92;98888.53;4888050;29;20031;-79
2021/01/12 01:21:34;;;;;;;6.65;2.42;;;;;;;5.99;89.69;98871.34;4884133;29;20119;-79
2021/01/12 01:24:00;;;;;;;6.22;2.33;;;;;;;6.00;89.53;98854.38;4877147;29;20025;-81
2021/01/12 01:26:25;;;;;;;4.43;2.10;;;;;;;6.00;88.98;98840.31;4872588;29;20180;-80
2021/01/12 01:28:50;;;;;;;4.50;1.80;;;;;;;6.00;88.84;98817.22;4871878;29;20020;-80
2021/01/12 01:31:16;;;;;;;3.42;2.15;;;;;;;5.93;88.50;98790.03;4882721;29;20029;-78
2021/01/12 01:33:42;;;;;;;2.08;1.50;;;;;;;5.85;89.16;98772.72;4864574;29;20035;-78
2021/01/12 01:36:11;;;;;;;3.85;1.83;;;;;;;5.79;89.80;98762.31;4882113;29;20051;-78
2021/01/12 01:38:37;;;;;;;2.45;1.20;;;;;;;5.69;89.75;98760.34;4883508;29;20047;-79
2021/01/12 01:41:05;;;;;;;1.38;1.08;;;;;;;5.61;90.16;98778.34;4883239;29;20044;-78
2021/01/12 01:43:31;;;;;;;1.63;0.98;;;;;;;5.59;90.37;98777.78;4881995;29;20025;-77
2021/01/12 01:45:57;;;;;;;0.80;0.80;;;;;;;5.54;90.37;98764.47;4865436;29;20473;-77
2021/01/12 01:48:22;;;;;;;1.20;0.98;;;;;;;5.49;91.06;98753.78;4865759;29;20029;-78
2021/01/12 01:50:47;;;;;;;1.33;1.20;;;;;;;5.49;91.61;98759.09;4865305;29;20044;-78
2021/01/12 01:53:14;;;;;;;1.17;1.02;;;;;;;5.49;91.54;98753.00;4865087;29;20041;-77
2021/01/12 01:55:40;;;;;;;1.30;1.20;;;;;;;5.45;91.82;98742.88;4865507;29;20037;-78
2021/01/12 01:58:07;;;;;;;1.25;1.00;;;;;;;5.49;91.66;98751.13;4867313;29;20072;-78
2021/01/12 02:00:34;;;;;;;1.00;0.85;;;;;;;5.48;91.84;98743.44;4882934;29;20035;-78
2021/01/12 02:03:14;;;;;;;2.22;1.73;;;;;;;5.53;92.22;98739.00;4887237;29;20032;-77
2021/01/12 02:05:42;;;;;;;2.13;1.70;;;;;;;5.55;91.86;98768.69;4869847;29;20025;-78
2021/01/12 02:08:23;;;;;;;2.75;2.20;;;;;;;5.61;91.62;98777.53;4861342;29;20485;-77
2021/01/12 02:10:50;;;;;;;1.58;1.40;;;;;;;5.61;92.15;98757.13;4860943;29;20032;-78
2021/01/12 02:13:20;;;;;;;4.07;2.38;;;;;;;5.65;92.08;98775.16;4861140;29;20017;-78
2021/01/12 02:15:47;;;;;;;2.33;1.77;;;;;;;5.68;91.95;98761.41;4864130;29;20039;-78
2021/01/12 02:18:13;;;;;;;1.92;1.50;;;;;;;5.69;91.72;98777.09;4860872;29;20117;-79
2021/01/12 02:20:41;;;;;;;3.38;2.08;;;;;;;5.73;91.80;98770.22;4860966;29;20112;-79
2021/01/12 02:23:16;;;;;;;2.40;1.90;;;;;;;5.76;91.31;98750.34;4860845;29;20032;-78
2021/01/12 02:25:43;;;;;;;3.08;1.73;;;;;;;5.78;91.16;98764.16;4860951;29;20447;-78
2021/01/12 02:28:10;;;;;;;2.20;1.58;;;;;;;5.83;91.16;98819.13;4861267;29;20368;-80
2021/01/12 02:30:36;;;;;;;4.10;1.55;;;;;;;5.87;91.16;98814.94;4870365;29;20182;-79
2021/01/12 02:33:03;;;;;;;2.40;1.42;;;;;;;5.90;91.26;98785.25;4861033;29;20084;-79
2021/01/12 02:35:30;;;;;;;2.55;1.27;;;;;;;5.92;90.82;98756.59;4860977;29;20056;-79
2021/01/12 02:37:56;;;;;;;1.40;1.20;;;;;;;5.95;90.72;98771.22;4860519;29;20067;-79
2021/01/12 02:40:22;;;;;;;2.22;1.10;;;;;;;5.89;90.07;98765.84;4877649;29;20033;-79
2021/01/12 02:42:47;;;;;;;2.00;1.40;;;;;;;5.87;90.17;98780.44;4860887;29;20037;-80
2021/01/12 02:45:13;;;;;;;1.88;1.40;;;;;;;5.87;90.57;98783.06;4866547;29;20039;-78
2021/01/12 02:47:39;;;;;;;2.22;1.38;;;;;;;5.90;89.98;98787.91;4882460;29;20048;-79
2021/01/12 02:50:06;;;;;;;1.58;1.15;;;;;;;5.87;90.18;98761.84;4883170;29;20402;-79
2021/01/12 02:52:31;;;;;;;2.05;1.30;;;;;;;5.85;90.33;98748.03;4883196;29;20028;-79
2021/01/12 02:54:57;;;;;;;2.22;1.38;;;;;;;5.85;90.25;98748.84;4898587;29;20481;-78
2021/01/12 02:57:23;;;;;;;1.85;1.02;;;;;;;5.85;90.19;98767.41;4883134;29;20028;-78
2021/01/12 02:59:48;;;;;;;1.50;1.00;;;;;;;5.83;90.20;98772.16;4870698;29;20040;-78
2021/01/12 03:02:13;;;;;;;0.93;0.90;;;;;;;5.82;90.45;98775.06;4864534;29;20032;-77
2021/01/12 03:04:39;;;;;;;1.73;1.42;;;;;;;5.84;90.43;98765.03;4864645;29;20032;-78
2021/01/12 03:07:04;;;;;;;3.00;1.85;;;;;;;5.82;90.31;98740.56;4864865;29;20403;-79
2021/01/12 03:09:29;;;;;;;2.78;1.50;;;;;;;5.82;90.55;98736.06;4865218;29;20045;-79
2021/01/12 03:11:55;;;;;;;2.67;1.50;;;;;;;5.81;90.11;98731.81;4864395;29;20033;-79
2021/01/12 03:14:21;;;;;;;1.20;1.10;;;;;;;5.76;89.83;98752.97;4865886;29;20036;-78
2021/01/12 03:16:47;;;;;;;1.75;1.33;;;;;;;5.73;90.50;98737.59;4865160;29;20456;-79
2021/01/12 03:19:12;;;;;;;1.13;1.02;;;;;;;5.71;90.28;98721.91;4864747;29;20033;-79
2021/01/12 03:21:38;;;;;;;0.98;0.85;;;;;;;5.63;90.46;98706.44;4865072;29;20035;-78
2021/01/12 03:24:05;;;;;;;1.92;0.90;;;;;;;5.55;91.04;98715.66;4874209;29;20025;-78
2021/01/12 03:26:31;;;;;;;0.50;0.40;;;;;;;5.56;90.93;98721.78;4883397;29;20032;-78
2021/01/12 03:28:56;;;;;;;1.50;0.73;;;;;;;5.55;91.18;98718.31;4877573;29;20714;-79
2021/01/12 03:31:22;;;;;;;1.65;0.70;;;;;;;5.56;91.31;98714.59;4869361;29;20028;-77
2021/01/12 03:33:47;;;;;;;1.58;0.68;;;;;;;5.55;91.13;98707.69;4883674;29;20028;-77
2021/01/12 03:36:13;;;;;;;2.25;0.60;;;;;;;5.58;91.48;98704.56;4883304;29;20115;-78
2021/01/12 03:38:38;;;;;;;0.95;0.63;;;;;;;5.58;91.13;98693.94;4887111;29;20036;-79
2021/01/12 03:41:04;;;;;;;1.13;0.70;;;;;;;5.58;90.87;98687.84;4883556;29;20032;-79
2021/01/12 03:43:30;;;;;;;1.77;0.88;;;;;;;5.57;90.76;98695.00;4883075;29;20032;-79
2021/01/12 03:45:55;;;;;;;1.75;1.10;;;;;;;5.55;90.49;98680.38;4879968;29;20031;-79
2021/01/12 03:48:21;;;;;;;3.92;2.17;;;;;;;5.51;90.51;98671.34;4864198;29;20060;-78
2021/01/12 03:50:47;;;;;;;5.85;2.60;;;;;;;5.50;90.82;98667.06;4864207;29;20035;-78
2021/01/12 03:53:15;;;;;;;6.18;2.67;;;;;;;5.47;90.86;98676.34;4864543;29;20610;-78
2021/01/12 03:55:41;;;;;;;8.52;3.30;;;;;;;5.49;91.04;98697.28;4864876;29;20029;-79
2021/01/12 03:58:07;;;;;;;7.57;3.22;;;;;;;5.50;90.89;98683.00;4863777;29;20677;-78
2021/01/12 04:00:32;;;;;;;6.43;3.42;;;;;;;5.46;90.92;98682.69;4864764;29;20036;-80
2021/01/12 04:02:58;;;;;;;6.97;3.17;;;;;;;5.47;90.90;98673.69;4880428;29;20488;-79
2021/01/12 04:05:23;;;;;;;12.13;4.30;;;;;;;5.45;91.18;98673.91;4885249;29;20041;-81
2021/01/12 04:07:48;;;;;;;12.30;5.47;;;;;;;5.44;91.05;98667.03;4866225;29;20029;-79
2021/01/12 04:10:14;;;;;;;14.15;6.07;;;;;;;5.42;91.03;98669.13;4867712;29;20100;-78
2021/01/12 04:12:39;;;;;;;16.42;6.07;;;;;;;5.42;91.03;98665.66;4880333;29;20040;-79
2021/01/12 04:15:06;;;;;;;14.05;5.97;;;;;;;5.41;91.56;98683.44;4882709;29;20411;-79
2021/01/12 04:17:32;;;;;;;15.43;6.35;;;;;;;5.41;91.27;98690.59;4882550;29;20116;-79
2021/01/12 04:19:57;;;;;;;15.63;7.03;;;;;;;5.41;91.03;98680.78;4882969;29;20123;-79
2021/01/12 04:22:23;;;;;;;14.90;6.53;;;;;;;5.40;91.56;98662.47;4883337;29;20111;-79
2021/01/12 04:24:49;;;;;;;18.83;7.18;;;;;;;5.38;91.79;98657.44;4869535;29;20409;-79
2021/01/12 04:27:14;;;;;;;19.42;7.93;;;;;;;5.38;91.88;98653.97;4863918;29;20535;-77
2021/01/12 04:29:40;;;;;;;19.83;8.13;;;;;;;5.36;91.65;98656.06;4863645;29;20024;-79
2021/01/12 04:32:05;;;;;;;18.98;8.45;;;;;;;5.34;91.78;98652.88;4875331;29;20036;-78
2021/01/12 04:34:31;;;;;;;26.35;9.23;;;;;;;5.33;91.95;98630.06;4864192;29;20029;-79
2021/01/12 04:36:56;;;;;;;15.60;7.15;;;;;;;5.31;91.73;98632.97;4864294;29;20422;-79
2021/01/12 04:39:22;;;;;;;15.63;6.63;;;;;;;5.28;92.24;98642.22;4865054;29;20053;-80
2021/01/12 04:41:47;;;;;;;15.35;7.50;;;;;;;5.29;92.34;98662.38;4863966;29;20128;-79
2021/01/12 04:44:14;;;;;;;21.67;9.30;;;;;;;5.29;92.43;98656.28;4864780;29;20036;-81
2021/01/12 04:46:39;;;;;;;33.90;11.15;;;;;;;5.27;92.21;98635.31;4850093;29;20025;-80
2021/01/12 04:49:05;;;;;;;33.85;10.70;;;;;;;5.30;92.72;98641.97;4865049;29;20041;-80
2021/01/12 04:51:30;;;;;;;34.40;12.45;;;;;;;5.28;92.78;98628.16;4865912;29;20033;-80
2021/01/12 04:53:56;;;;;;;37.47;11.38;;;;;;;5.29;93.05;98646.47;4864821;29;20029;-81
2021/01/12 04:56:22;;;;;;;34.28;9.65;;;;;;;5.27;93.28;98653.06;4866124;29;20025;-80
2021/01/12 04:58:50;;;;;;;10.23;4.50;;;;;;;5.35;92.86;98638.56;4875186;29;20028;-81
2021/01/12 05:01:20;;;;;;;8.77;3.08;;;;;;;5.37;93.07;98616.06;4874881;29;20036;-79
2021/01/12 05:06:53;;;;;;;5.13;1.45;;;;;;;5.42;92.77;98607.31;4926997;29;20047;-83
2021/01/12 05:09:31;;;;;;;1.30;1.20;;;;;;;5.45;92.97;98617.44;4899625;29;20020;-81
2021/01/12 05:11:59;;;;;;;1.17;1.08;;;;;;;5.44;92.93;98627.25;4893383;29;20020;-81
2021/01/12 05:14:25;;;;;;;1.43;1.13;;;;;;;5.45;92.85;98618.22;4894094;29;20021;-78
2021/01/12 05:17:05;;;;;;;0.70;0.65;;;;;;;5.48;92.30;98624.91;4871324;29;20274;-81
2021/01/12 05:19:45;;;;;;;1.00;0.85;;;;;;;5.50;92.21;98628.06;4881816;29;20051;-79
2021/01/12 05:32:36;;;;;;;1.30;1.20;;;;;;;5.56;91.41;98640.31;5253323;23;20055;-79
2021/01/12 07:45:32;;;;;;;3.38;1.63;;;;;;;5.44;92.68;98502.59;6016967;23;20835;31
2021/01/12 10:10:17;;;;;;;2.83;1.97;;;;;;;5.62;88.77;98410.38;6017247;23;20150;31
2021/01/12 16:03:00;;;;;;;3.47;2.25;;;;;;;4.47;87.62;98039.25;5718045;23;20064;-80
2021/01/12 16:20:33;;;;;;;1.63;1.50;;;;;;;4.56;87.69;98044.81;5535089;23;20063;-80
2021/01/12 16:23:01;;;;;;;2.90;1.40;;;;;;;4.58;87.56;98032.91;4922806;29;20031;-81
2021/01/12 16:29:05;;;;;;;2.22;2.00;;;;;;;4.58;87.52;98038.19;4930245;29;20056;-80
2021/01/12 16:50:57;;;;;;;;;;;;;;;4.57;87.67;98041.91;5268343;23;20056;-82
2021/01/12 16:56:17;;;;;;;3.95;2.28;;;;;;;4.61;87.99;98044.81;5104423;23;20059;-81
2021/01/12 16:59:29;;;;;;;2.78;2.20;;;;;;;4.63;88.23;98040.06;4928908;29;20048;-82
2021/01/12 17:12:50;;;;;;;7.82;2.80;;;;;;;4.57;88.15;98054.34;5849474;23;20104;-83
2021/01/12 17:15:17;;;;;;;5.07;2.63;;;;;;;4.58;87.70;98063.91;4864150;29;20029;-76
2021/01/12 17:17:47;;;;;;;4.43;2.72;;;;;;;4.59;87.92;98055.69;4862691;29;20069;-78
2021/01/12 17:20:18;;;;;;;4.40;3.00;;;;;;;4.60;87.95;98062.56;4876049;29;20039;-78
2021/01/12 17:23:01;;;;;;;6.72;3.65;;;;;;;4.64;87.85;98079.53;4843574;29;20033;-77
2021/01/12 17:25:30;;;;;;;3.85;2.85;;;;;;;4.67;87.88;98064.97;4863750;29;20041;-82
2021/01/12 17:28:05;;;;;;;6.07;3.83;;;;;;;4.68;87.81;98077.16;4881860;29;20036;-83
2021/01/12 17:30:40;;;;;;;4.97;3.22;;;;;;;4.71;87.73;98078.47;4895616;29;20032;-81
2021/01/12 17:48:54;;;;;;;7.50;3.40;;;;;;;4.69;88.13;98092.00;5674296;23;20108;-82
2021/01/12 17:51:42;;;;;;;6.32;4.57;;;;;;;4.70;88.27;98090.13;4889245;29;20016;-83
2021/01/12 17:54:12;;;;;;;10.30;5.20;;;;;;;4.71;88.07;98097.03;4882923;29;20039;-81
2021/01/12 17:56:39;;;;;;;12.20;5.32;;;;;;;4.72;87.77;98098.63;4882019;29;20024;-80
2021/01/12 17:59:07;;;;;;;7.57;4.57;;;;;;;4.74;88.11;98084.06;4884518;29;20478;-80
2021/01/12 18:01:33;;;;;;;6.72;3.65;;;;;;;4.71;88.00;98083.78;4881314;29;20064;-78
2021/01/12 18:03:58;;;;;;;9.13;4.63;;;;;;;4.75;88.45;98085.66;4882401;29;20462;-79
2021/01/12 18:06:24;;;;;;;8.55;4.40;;;;;;;4.75;88.09;98088.28;4881945;29;20084;-80
2021/01/12 18:08:55;;;;;;;8.65;4.25;;;;;;;4.76;87.92;98079.28;4881723;29;20578;-79
2021/01/12 18:11:24;;;;;;;6.68;3.42;;;;;;;4.74;87.63;98085.91;4882323;29;20031;-82
2021/01/12 18:34:46;;;;;;;7.40;5.18;;;;;;;4.77;87.89;98075.59;5573712;23;20059;-78
2021/01/12 18:37:23;;;;;;;8.38;4.65;;;;;;;4.77;87.56;98069.50;4900738;29;20231;-78
2021/01/12 18:39:54;;;;;;;8.07;4.78;;;;;;;4.74;87.83;98068.16;4896294;29;20032;-78
2021/01/12 18:42:20;;;;;;;9.18;5.15;;;;;;;4.75;88.18;98071.63;4880894;29;20029;-78
2021/01/12 18:44:46;;;;;;;6.63;4.88;;;;;;;4.72;88.21;98064.97;4878956;29;20047;-78
2021/01/12 18:47:12;;;;;;;9.32;5.68;;;;;;;4.69;88.47;98062.84;4880582;29;20069;-78
2021/01/12 18:49:44;;;;;;;8.73;5.07;;;;;;;4.67;88.65;98062.31;4882002;29;20123;-78
2021/01/12 18:52:15;;;;;;;6.72;4.65;;;;;;;4.63;88.50;98061.25;4889958;29;20036;-78
2021/01/12 18:54:48;;;;;;;6.82;4.85;;;;;;;4.67;89.00;98067.59;4899146;29;20055;-77
2021/01/12 18:57:18;;;;;;;9.82;4.97;;;;;;;4.68;89.03;98058.63;4883725;29;20173;-78
2021/01/12 18:59:44;;;;;;;8.35;5.25;;;;;;;4.68;89.10;98048.03;4878140;29;20168;-77
2021/01/12 19:02:24;;;;;;;11.00;6.05;;;;;;;4.69;88.75;98040.84;4879159;29;20029;-77
2021/01/12 19:04:51;;;;;;;15.75;7.90;;;;;;;4.72;88.56;98037.69;4875566;29;20035;-78
2021/01/12 19:07:17;;;;;;;11.15;6.85;;;;;;;4.72;88.65;98027.09;4881237;29;20148;-78
2021/01/12 19:09:43;;;;;;;18.73;10.07;;;;;;;4.75;88.71;98029.25;4886550;29;20491;-77
2021/01/12 19:12:09;;;;;;;16.23;7.90;;;;;;;4.75;88.87;98022.06;4887513;29;20024;-78
2021/01/12 19:14:44;;;;;;;9.13;5.78;;;;;;;4.73;88.18;98020.75;4883793;29;20032;-80
2021/01/12 19:17:15;;;;;;;14.23;7.47;;;;;;;4.73;88.66;98026.84;4897372;29;20096;-78
2021/01/12 19:19:42;;;;;;;10.10;6.35;;;;;;;4.70;88.91;98021.25;4885924;29;20119;-78
2021/01/12 19:22:08;;;;;;;9.55;6.63;;;;;;;4.68;88.29;98020.75;4881749;29;20031;-80
2021/01/12 19:24:34;;;;;;;10.82;6.10;;;;;;;4.66;88.41;98028.94;4888144;29;20047;-78
2021/01/12 19:27:03;;;;;;;14.65;7.35;;;;;;;4.65;88.60;98030.81;4899772;29;20061;-79
2021/01/12 19:29:30;;;;;;;14.10;7.72;;;;;;;4.65;89.06;98038.75;4881124;29;20443;-80
2021/01/12 19:32:07;;;;;;;11.38;6.93;;;;;;;4.59;88.64;98036.34;4934285;23;20124;-81
2021/01/12 19:34:34;;;;;;;12.80;7.47;;;;;;;4.63;88.91;98048.00;4888709;29;20037;-79
2021/01/12 19:39:39;;;;;;;13.45;8.43;;;;;;;4.64;88.49;98049.59;5066839;23;20071;-79
2021/01/12 19:42:05;;;;;;;12.90;8.07;;;;;;;4.65;88.55;98045.88;4867239;29;20033;-79
2021/01/12 19:44:34;;;;;;;17.88;8.70;;;;;;;4.67;88.57;98040.34;4865757;29;20036;-79
2021/01/12 19:47:25;;;;;;;13.20;7.70;;;;;;;4.64;88.09;98041.66;4872736;29;20033;-80
2021/01/12 19:49:55;;;;;;;13.55;8.27;;;;;;;4.64;88.53;98041.66;4867018;29;20064;-81
2021/01/12 19:52:32;;;;;;;14.30;8.00;;;;;;;4.62;88.36;98047.19;4875443;29;20029;-80
2021/01/12 19:54:57;;;;;;;10.70;7.75;;;;;;;4.58;88.35;98045.34;4873044;29;20027;-77
2021/01/12 19:57:23;;;;;;;16.63;8.07;;;;;;;4.57;87.93;98044.53;4865361;29;20088;-77
2021/01/12 20:00:15;;;;;;;13.68;8.85;;;;;;;4.51;88.02;98042.16;4870695;29;20037;-80
2021/01/12 20:02:42;;;;;;;17.50;9.70;;;;;;;4.55;88.47;98041.34;4863694;29;20021;-77
2021/01/12 20:05:10;;;;;;;16.48;9.45;;;;;;;4.49;88.21;98037.09;4881064;29;20024;-75
2021/01/12 20:07:36;;;;;;;17.17;8.97;;;;;;;4.50;88.24;98044.00;4874207;29;20108;-76
2021/01/12 20:10:02;;;;;;;15.82;8.52;;;;;;;4.48;88.21;98046.91;4864132;29;20321;-76
2021/01/12 20:12:28;;;;;;;14.68;8.73;;;;;;;4.47;88.01;98058.56;4864271;29;20118;-79
2021/01/12 20:14:53;;;;;;;15.75;9.27;;;;;;;4.47;88.25;98049.81;4865639;29;20044;-79
2021/01/12 20:17:20;;;;;;;13.82;8.70;;;;;;;4.46;88.23;98064.13;4866319;29;20060;-78
2021/01/12 20:19:54;;;;;;;17.17;9.13;;;;;;;4.44;88.37;98069.69;4866106;29;20044;-78
2021/01/12 20:22:26;;;;;;;14.43;7.97;;;;;;;4.41;88.90;98058.81;4867685;29;20497;-77
2021/01/12 20:24:53;;;;;;;13.38;7.78;;;;;;;4.40;88.56;98060.66;4866291;29;20052;-77
2021/01/12 20:27:24;;;;;;;13.43;8.43;;;;;;;4.40;89.00;98058.00;4869854;29;20112;-81
2021/01/12 20:29:50;;;;;;;15.93;7.95;;;;;;;4.41;88.70;98043.72;4870066;29;20730;-77
2021/01/12 20:32:20;;;;;;;13.73;8.70;;;;;;;4.42;88.71;98055.91;4865848;29;20108;-79
2021/01/12 20:34:47;;;;;;;9.63;6.63;;;;;;;4.38;87.91;98052.19;4852793;29;20025;-82
2021/01/12 20:37:16;;;;;;;13.75;7.82;;;;;;;4.40;88.63;98052.69;4858812;29;20479;-81
2021/01/12 20:39:44;;;;;;;11.45;6.88;;;;;;;4.38;88.63;98048.72;4878266;29;20032;-79
2021/01/12 20:42:15;;;;;;;12.82;7.60;;;;;;;4.38;88.74;98054.03;4881859;29;20511;-79
2021/01/12 20:52:31;;;;;;;11.38;6.57;;;;;;;4.32;88.20;98054.00;4859708;27;20048;-80
2021/01/12 20:55:06;;;;;;;13.70;7.53;;;;;;;4.37;87.98;98063.81;4884020;29;20036;-80
2021/01/12 20:58:06;;;;;;;11.98;6.18;;;;;;;4.38;88.10;98046.91;4889674;29;20037;-78
2021/01/12 21:01:10;;;;;;;12.18;6.93;;;;;;;4.39;87.57;98059.06;4895078;29;20021;-79
2021/01/12 21:04:15;;;;;;;10.07;5.90;;;;;;;4.36;87.22;98046.34;5025810;23;20048;-81
2021/01/12 21:16:30;;;;;;;14.43;7.13;;;;;;;4.25;86.94;98026.97;4902113;29;20044;-79
2021/01/12 21:27:12;;;;;;;10.82;5.80;;;;;;;4.18;86.10;98029.06;5995553;23;20027;31
2021/01/12 21:45:34;;;;;;;12.25;6.40;;;;;;;3.90;85.77;98015.19;5984792;23;20003;-79
2021/01/12 21:48:08;;;;;;;9.82;5.82;;;;;;;3.91;86.04;98008.84;4919709;29;20107;-84
2021/01/12 22:06:07;;;;;;;8.20;4.45;;;;;;;3.65;84.70;97973.53;5845416;23;20059;-84
2021/01/12 22:11:36;;;;;;;9.60;4.65;;;;;;;3.62;85.43;98001.28;4993882;23;20043;-82
2021/01/12 22:14:12;;;;;;;9.43;4.90;;;;;;;3.65;85.77;98007.91;4917050;29;20489;-81
2021/01/12 22:19:34;;;;;;;5.68;3.90;;;;;;;3.53;84.73;97994.91;4939807;29;20031;-82
2021/01/12 22:22:27;;;;;;;;;;;;;;;3.60;84.58;98006.06;4920080;29;20020;-83
2021/01/12 22:25:16;;;;;;;6.57;3.58;;;;;;;3.58;84.37;97994.94;4933870;29;19899;-82
2021/01/12 22:52:03;;;;;;;6.30;4.22;;;;;;;3.46;83.82;98018.91;5829076;23;20064;-81
2021/01/12 22:54:28;;;;;;;7.20;4.47;;;;;;;3.44;83.89;98012.28;4835936;29;1817767;-81
2021/01/12 22:57:00;;;;;;;6.97;4.18;;;;;;;3.43;84.23;98015.97;4884727;29;20036;-81
2021/01/12 22:59:27;;;;;;;7.07;4.45;;;;;;;3.41;84.66;98010.94;4885475;29;20024;-81
2021/01/12 23:01:53;;;;;;;7.72;4.25;;;;;;;3.44;84.47;98014.94;4867852;29;20044;-80
2021/01/12 23:04:18;;;;;;;7.43;5.25;;;;;;;3.45;84.34;98022.59;4884026;29;20036;-81
2021/01/12 23:06:45;;;;;;;8.15;4.60;;;;;;;3.45;83.14;98008.59;4887549;29;20085;-80
2021/01/12 23:09:10;;;;;;;8.60;5.10;;;;;;;3.46;83.22;98018.13;4872549;29;20485;-81
2021/01/12 23:11:35;;;;;;;6.50;4.22;;;;;;;3.47;82.78;98019.72;4887757;29;20061;-81
2021/01/12 23:14:34;;;;;;;8.43;3.78;;;;;;;3.46;82.30;98026.06;4881192;29;20118;-80
2021/01/12 23:22:57;;;;;;;7.40;4.40;;;;;;;3.52;82.42;98015.25;4921588;23;20079;-80
2021/01/12 23:26:09;;;;;;;5.85;3.47;;;;;;;3.55;81.31;98024.50;4891526;29;20020;-82
2021/01/12 23:32:36;;;;;;;6.45;3.88;;;;;;;3.53;79.85;98006.28;4930189;29;20083;-83
2021/01/12 23:52:17;;;;;;;3.63;2.90;;;;;;;3.29;75.53;97989.22;4868980;29;20085;-81
2021/01/12 23:54:48;;;;;;;6.45;3.70;;;;;;;3.28;75.54;98000.81;4887748;29;20065;-81
2021/01/12 23:57:13;;;;;;;5.55;3.53;;;;;;;3.26;75.46;97994.97;4899021;29;20040;-81
